createdAt,value
2023-11-04T00:00:05.010Z,6.92
2023-11-04T00:02:05.462Z,6.91
2023-11-04T00:03:05.172Z,6.91
2023-11-04T00:04:05.204Z,6.89
2023-11-04T00:05:04.992Z,6.96
2023-11-04T00:06:05.496Z,6.92
2023-11-04T00:07:04.954Z,6.92
2023-11-04T00:08:04.996Z,6.99
2023-11-04T00:09:05.008Z,7.03
2023-11-04T00:10:04.999Z,6.86
2023-11-04T00:11:04.969Z,6.92
2023-11-04T00:12:04.932Z,6.86
2023-11-04T00:13:04.924Z,6.85
2023-11-04T00:14:04.927Z,6.78
2023-11-04T00:15:04.954Z,6.74
2023-11-04T00:16:04.912Z,6.85
2023-11-04T00:17:04.893Z,6.81
2023-11-04T00:18:04.925Z,6.82
2023-11-04T00:19:04.986Z,6.81
2023-11-04T00:20:04.886Z,6.68
2023-11-04T00:21:04.947Z,6.75
2023-11-04T00:22:04.923Z,6.79
2023-11-04T00:23:04.864Z,6.78
2023-11-04T00:24:04.864Z,6.73
2023-11-04T00:25:04.843Z,6.79
2023-11-04T00:26:04.861Z,6.79
2023-11-04T00:27:04.883Z,6.73
2023-11-04T00:28:04.908Z,6.89
2023-11-04T00:29:04.810Z,6.83
2023-11-04T00:30:04.846Z,6.86
2023-11-04T00:31:04.812Z,6.92
2023-11-04T00:32:06.357Z,6.92
2023-11-04T00:33:05.407Z,6.88
2023-11-04T00:34:04.971Z,6.92
2023-11-04T00:35:04.980Z,7.08
2023-11-04T00:36:04.744Z,6.99
2023-11-04T00:37:04.755Z,7.10
2023-11-04T00:38:04.760Z,7.04
2023-11-04T00:39:04.822Z,7.16
2023-11-04T00:40:04.748Z,7.10
2023-11-04T00:41:04.793Z,7.15
2023-11-04T00:42:04.991Z,7.04
2023-11-04T00:43:04.730Z,7.01
2023-11-04T00:44:04.749Z,7.08
2023-11-04T00:45:04.790Z,7.13
2023-11-04T00:46:04.721Z,7.19
2023-11-04T00:47:04.931Z,7.19
2023-11-04T00:48:04.693Z,7.16
2023-11-04T00:49:04.756Z,7.25
2023-11-04T00:50:14.683Z,7.21
2023-11-04T00:51:05.753Z,7.11
2023-11-04T00:52:04.661Z,7.10
2023-11-04T00:53:04.708Z,7.11
2023-11-04T00:54:04.630Z,7.13
2023-11-04T00:55:04.824Z,7.16
2023-11-04T00:56:04.637Z,7.11
2023-11-04T00:57:04.935Z,7.16
2023-11-04T00:58:04.630Z,7.21
2023-11-04T00:59:04.620Z,7.21
2023-11-04T01:00:04.582Z,7.16
2023-11-04T01:01:04.576Z,7.22
2023-11-04T01:02:04.581Z,7.19
2023-11-04T01:03:04.662Z,7.22
2023-11-04T01:04:04.665Z,7.26
2023-11-04T01:05:04.609Z,7.28
2023-11-04T01:06:04.550Z,7.18
2023-11-04T01:07:04.567Z,7.24
2023-11-04T01:08:04.554Z,7.21
2023-11-04T01:09:04.789Z,7.22
2023-11-04T01:10:04.522Z,7.21
2023-11-04T01:11:04.506Z,7.33
2023-11-04T01:12:04.507Z,7.26
2023-11-04T01:13:04.510Z,7.26
2023-11-04T01:14:04.489Z,7.33
2023-11-04T01:15:04.502Z,7.31
2023-11-04T01:16:04.479Z,7.33
2023-11-04T01:17:04.514Z,7.29
2023-11-04T01:18:04.955Z,7.40
2023-11-04T01:19:04.558Z,7.36
2023-11-04T01:20:04.592Z,7.33
2023-11-04T01:21:04.459Z,7.34
2023-11-04T01:22:04.446Z,7.36
2023-11-04T01:23:04.483Z,7.47
2023-11-04T01:24:04.434Z,7.47
2023-11-04T01:25:04.426Z,7.42
2023-11-04T01:26:04.416Z,7.47
2023-11-04T01:27:04.408Z,7.39
2023-11-04T01:28:04.426Z,7.50
2023-11-04T01:29:04.392Z,7.44
2023-11-04T01:30:04.410Z,7.47
2023-11-04T01:31:04.407Z,7.50
2023-11-04T01:32:06.778Z,7.50
2023-11-04T01:33:04.450Z,7.46
2023-11-04T01:34:04.435Z,7.43
2023-11-04T01:35:04.453Z,7.49
2023-11-04T01:36:04.369Z,7.66
2023-11-04T01:37:04.385Z,7.55
2023-11-04T01:38:04.395Z,7.54
2023-11-04T01:39:04.390Z,7.58
2023-11-04T01:40:04.333Z,7.71
2023-11-04T01:41:04.334Z,7.66
2023-11-04T01:42:04.336Z,7.61
2023-11-04T01:43:04.343Z,7.66
2023-11-04T01:44:04.298Z,7.62
2023-11-04T01:45:04.289Z,7.73
2023-11-04T01:46:04.284Z,7.57
2023-11-04T01:47:04.307Z,7.66
2023-11-04T01:48:04.356Z,7.66
2023-11-04T01:49:04.430Z,7.62
2023-11-04T01:50:04.260Z,7.62
2023-11-04T01:51:04.254Z,7.77
2023-11-04T01:52:04.280Z,7.69
2023-11-04T01:53:04.283Z,7.80
2023-11-04T01:54:04.242Z,7.66
2023-11-04T01:55:04.784Z,7.76
2023-11-04T01:56:04.238Z,7.66
2023-11-04T01:57:04.246Z,7.66
2023-11-04T01:58:04.330Z,7.66
2023-11-04T01:59:04.251Z,7.55
2023-11-04T02:00:04.208Z,7.74
2023-11-04T02:01:04.197Z,7.76
2023-11-04T02:02:04.181Z,7.69
2023-11-04T02:03:04.230Z,7.64
2023-11-04T02:04:04.299Z,7.66
2023-11-04T02:05:04.258Z,7.58
2023-11-04T02:06:04.259Z,7.66
2023-11-04T02:07:04.157Z,7.71
2023-11-04T02:08:04.146Z,7.73
2023-11-04T02:09:04.192Z,7.69
2023-11-04T02:10:04.154Z,7.61
2023-11-04T02:11:04.160Z,7.71
2023-11-04T02:12:04.130Z,7.73
2023-11-04T02:13:04.134Z,7.81
2023-11-04T02:14:04.112Z,7.71
2023-11-04T02:15:04.116Z,7.71
2023-11-04T02:16:04.092Z,7.74
2023-11-04T02:17:04.083Z,7.74
2023-11-04T02:18:04.084Z,7.76
2023-11-04T02:19:04.305Z,7.76
2023-11-04T02:20:04.182Z,7.78
2023-11-04T02:21:04.070Z,7.78
2023-11-04T02:22:04.051Z,7.86
2023-11-04T02:23:04.050Z,7.91
2023-11-04T02:24:04.069Z,7.86
2023-11-04T02:25:04.038Z,7.81
2023-11-04T02:26:04.032Z,7.91
2023-11-04T02:27:04.054Z,7.74
2023-11-04T02:28:04.014Z,7.86
2023-11-04T02:29:04.023Z,7.83
2023-11-04T02:30:03.996Z,7.80
2023-11-04T02:31:04.002Z,7.80
2023-11-04T02:32:03.991Z,8.02
2023-11-04T02:33:04.012Z,7.91
2023-11-04T02:34:04.253Z,7.83
2023-11-04T02:35:03.977Z,7.80
2023-11-04T02:36:03.968Z,7.92
2023-11-04T02:37:03.962Z,7.88
2023-11-04T02:38:03.958Z,7.91
2023-11-04T02:39:03.964Z,7.92
2023-11-04T02:40:03.959Z,7.83
2023-11-04T02:41:03.975Z,7.96
2023-11-04T02:42:03.943Z,7.95
2023-11-04T02:43:03.967Z,7.96
2023-11-04T02:44:03.909Z,8.09
2023-11-04T02:45:03.929Z,7.94
2023-11-04T02:46:03.903Z,7.98
2023-11-04T02:47:03.900Z,7.96
2023-11-04T02:48:04.755Z,8.02
2023-11-04T02:49:04.002Z,7.95
2023-11-04T02:50:03.905Z,8.02
2023-11-04T02:51:03.890Z,7.96
2023-11-04T02:52:09.122Z,8.06
2023-11-04T02:53:04.858Z,8.04
2023-11-04T02:54:03.887Z,8.06
2023-11-04T02:55:03.888Z,7.95
2023-11-04T02:56:03.824Z,7.94
2023-11-04T02:57:03.819Z,7.99
2023-11-04T02:58:03.835Z,8.09
2023-11-04T02:59:03.877Z,8.16
2023-11-04T03:00:03.832Z,8.05
2023-11-04T03:01:03.825Z,8.09
2023-11-04T03:02:03.805Z,8.02
2023-11-04T03:03:03.898Z,7.99
2023-11-04T03:04:04.015Z,8.10
2023-11-04T03:05:03.813Z,8.04
2023-11-04T03:06:03.773Z,8.02
2023-11-04T03:07:03.778Z,7.96
2023-11-04T03:08:03.754Z,8.01
2023-11-04T03:09:03.762Z,7.94
2023-11-04T03:10:03.775Z,7.95
2023-11-04T03:11:03.749Z,7.98
2023-11-04T03:12:03.770Z,7.98
2023-11-04T03:13:03.855Z,8.02
2023-11-04T03:14:03.716Z,7.96
2023-11-04T03:15:03.728Z,7.99
2023-11-04T03:16:03.709Z,8.02
2023-11-04T03:17:03.795Z,7.96
2023-11-04T03:18:03.844Z,8.10
2023-11-04T03:19:03.840Z,8.05
2023-11-04T03:20:03.688Z,7.99
2023-11-04T03:21:03.664Z,7.96
2023-11-04T03:22:03.687Z,8.05
2023-11-04T03:23:03.681Z,7.99
2023-11-04T03:24:03.648Z,8.12
2023-11-04T03:25:03.632Z,8.09
2023-11-04T03:26:03.625Z,8.09
2023-11-04T03:27:03.724Z,8.16
2023-11-04T03:28:03.930Z,8.12
2023-11-04T03:29:03.626Z,8.12
2023-11-04T03:30:03.602Z,8.05
2023-11-04T03:31:03.624Z,8.10
2023-11-04T03:32:03.602Z,8.06
2023-11-04T03:33:03.691Z,8.04
2023-11-04T03:34:03.657Z,7.99
2023-11-04T03:35:03.595Z,8.02
2023-11-04T03:36:03.561Z,8.09
2023-11-04T03:37:03.658Z,8.02
2023-11-04T03:38:03.551Z,8.06
2023-11-04T03:39:03.567Z,8.10
2023-11-04T03:40:03.575Z,8.06
2023-11-04T03:41:03.530Z,8.09
2023-11-04T03:42:03.542Z,7.98
2023-11-04T03:43:03.517Z,8.12
2023-11-04T03:44:03.507Z,8.04
2023-11-04T03:45:03.534Z,8.02
2023-11-04T03:46:04.361Z,8.04
2023-11-04T03:47:03.636Z,8.04
2023-11-04T03:48:03.590Z,8.09
2023-11-04T03:49:03.593Z,8.02
2023-11-04T03:50:03.479Z,7.98
2023-11-04T03:51:03.474Z,8.12
2023-11-04T03:52:03.499Z,7.98
2023-11-04T03:53:03.452Z,8.06
2023-11-04T03:54:03.456Z,8.12
2023-11-04T03:55:03.460Z,8.05
2023-11-04T03:56:03.432Z,7.99
2023-11-04T03:57:03.488Z,8.01
2023-11-04T03:58:03.459Z,8.04
2023-11-04T03:59:03.424Z,8.09
2023-11-04T04:00:03.406Z,8.06
2023-11-04T04:01:03.407Z,8.13
2023-11-04T04:02:03.400Z,8.01
2023-11-04T04:03:03.662Z,8.10
2023-11-04T04:04:03.490Z,8.05
2023-11-04T04:05:03.441Z,8.01
2023-11-04T04:06:03.768Z,8.02
2023-11-04T04:07:03.391Z,8.10
2023-11-04T04:08:03.367Z,7.98
2023-11-04T04:09:03.356Z,8.04
2023-11-04T04:10:03.374Z,8.01
2023-11-04T04:11:03.450Z,7.96
2023-11-04T04:12:03.328Z,8.05
2023-11-04T04:13:03.333Z,8.12
2023-11-04T04:14:03.313Z,8.04
2023-11-04T04:15:03.322Z,8.06
2023-11-04T04:16:03.397Z,7.99
2023-11-04T04:17:03.300Z,7.99
2023-11-04T04:18:03.393Z,8.02
2023-11-04T04:19:03.381Z,8.01
2023-11-04T04:20:03.281Z,8.02
2023-11-04T04:21:03.273Z,8.01
2023-11-04T04:22:03.305Z,8.01
2023-11-04T04:23:03.266Z,8.10
2023-11-04T04:24:03.252Z,7.95
2023-11-04T04:25:03.247Z,7.98
2023-11-04T04:26:03.239Z,7.96
2023-11-04T04:27:03.248Z,8.01
2023-11-04T04:28:03.254Z,7.94
2023-11-04T04:29:03.233Z,7.95
2023-11-04T04:30:03.223Z,7.88
2023-11-04T04:31:03.218Z,7.86
2023-11-04T04:32:03.200Z,7.88
2023-11-04T04:33:03.235Z,7.73
2023-11-04T04:34:03.291Z,7.84
2023-11-04T04:35:03.218Z,7.76
2023-11-04T04:36:03.181Z,7.76
2023-11-04T04:37:03.189Z,7.73
2023-11-04T04:38:03.165Z,7.73
2023-11-04T04:39:03.164Z,7.64
2023-11-04T04:40:03.210Z,7.71
2023-11-04T04:41:03.144Z,7.64
2023-11-04T04:42:03.143Z,7.54
2023-11-04T04:43:03.131Z,7.66
2023-11-04T04:44:03.124Z,7.58
2023-11-04T04:45:03.130Z,7.60
2023-11-04T04:46:03.206Z,7.73
2023-11-04T04:47:03.227Z,7.62
2023-11-04T04:48:03.113Z,7.66
2023-11-04T04:49:03.135Z,7.60
2023-11-04T04:50:03.082Z,7.69
2023-11-04T04:51:03.098Z,7.77
2023-11-04T04:52:03.203Z,7.78
2023-11-04T04:53:03.060Z,7.80
2023-11-04T04:54:03.052Z,7.78
2023-11-04T04:55:03.058Z,7.83
2023-11-04T04:56:03.247Z,7.91
2023-11-04T04:57:03.044Z,7.83
2023-11-04T04:58:03.193Z,7.78
2023-11-04T04:59:03.028Z,7.92
2023-11-04T05:00:03.016Z,7.86
2023-11-04T05:01:03.015Z,8.02
2023-11-04T05:02:03.004Z,8.02
2023-11-04T05:03:03.066Z,7.98
2023-11-04T05:04:03.080Z,7.98
2023-11-04T05:05:03.030Z,7.96
2023-11-04T05:06:02.981Z,7.96
2023-11-04T05:07:03.021Z,7.92
2023-11-04T05:08:02.969Z,7.96
2023-11-04T05:09:02.964Z,8.06
2023-11-04T05:10:02.978Z,7.96
2023-11-04T05:11:02.942Z,8.12
2023-11-04T05:12:02.968Z,8.01
2023-11-04T05:13:02.963Z,8.02
2023-11-04T05:14:02.938Z,8.01
2023-11-04T05:15:02.926Z,8.02
2023-11-04T05:16:02.955Z,7.99
2023-11-04T05:17:02.902Z,7.96
2023-11-04T05:18:03.155Z,8.01
2023-11-04T05:19:03.370Z,8.05
2023-11-04T05:20:02.900Z,7.98
2023-11-04T05:21:02.876Z,8.04
2023-11-04T05:22:02.908Z,8.01
2023-11-04T05:23:02.900Z,8.19
2023-11-04T05:24:02.870Z,8.12
2023-11-04T05:25:02.918Z,8.12
2023-11-04T05:26:02.859Z,8.10
2023-11-04T05:27:02.846Z,8.21
2023-11-04T05:28:02.857Z,8.13
2023-11-04T05:29:02.825Z,8.19
2023-11-04T05:30:02.853Z,8.16
2023-11-04T05:31:02.832Z,8.16
2023-11-04T05:32:02.810Z,8.17
2023-11-04T05:33:02.941Z,8.19
2023-11-04T05:34:02.866Z,8.20
2023-11-04T05:35:02.804Z,8.13
2023-11-04T05:36:02.783Z,8.10
2023-11-04T05:37:02.793Z,8.16
2023-11-04T05:38:02.771Z,8.16
2023-11-04T05:39:02.801Z,8.09
2023-11-04T05:40:02.821Z,8.10
2023-11-04T05:41:02.741Z,8.19
2023-11-04T05:42:02.760Z,8.14
2023-11-04T05:43:02.832Z,8.14
2023-11-04T05:44:02.742Z,8.20
2023-11-04T05:45:02.767Z,8.16
2023-11-04T05:46:02.742Z,8.12
2023-11-04T05:47:02.729Z,8.06
2023-11-04T05:48:02.781Z,8.14
2023-11-04T05:49:02.753Z,8.12
2023-11-04T05:50:02.701Z,8.20
2023-11-04T05:51:02.674Z,8.10
2023-11-04T05:52:02.767Z,8.17
2023-11-04T05:53:02.698Z,8.06
2023-11-04T05:54:02.658Z,8.17
2023-11-04T05:55:02.727Z,8.10
2023-11-04T05:56:02.664Z,8.19
2023-11-04T05:57:02.701Z,8.13
2023-11-04T05:58:02.913Z,8.12
2023-11-04T05:59:02.968Z,8.20
2023-11-04T06:00:02.819Z,8.17
2023-11-04T06:01:02.676Z,8.20
2023-11-04T06:02:03.370Z,8.20
2023-11-04T06:03:02.656Z,8.16
2023-11-04T06:04:02.715Z,8.09
2023-11-04T06:05:02.786Z,8.21
2023-11-04T06:06:02.583Z,8.14
2023-11-04T06:07:02.677Z,8.14
2023-11-04T06:08:02.567Z,8.19
2023-11-04T06:09:02.571Z,8.16
2023-11-04T06:10:02.613Z,8.17
2023-11-04T06:11:02.689Z,8.23
2023-11-04T06:12:02.589Z,8.17
2023-11-04T06:13:02.559Z,8.17
2023-11-04T06:14:02.537Z,8.20
2023-11-04T06:15:02.547Z,8.20
2023-11-04T06:16:02.540Z,8.24
2023-11-04T06:17:02.511Z,8.14
2023-11-04T06:18:02.548Z,8.29
2023-11-04T06:19:02.675Z,8.20
2023-11-04T06:20:02.521Z,8.26
2023-11-04T06:21:02.513Z,8.21
2023-11-04T06:22:02.517Z,8.26
2023-11-04T06:23:03.346Z,8.26
2023-11-04T06:24:02.483Z,8.32
2023-11-04T06:25:02.945Z,8.31
2023-11-04T06:26:02.474Z,8.23
2023-11-04T06:27:02.466Z,8.31
2023-11-04T06:28:02.476Z,8.28
2023-11-04T06:29:02.451Z,8.24
2023-11-04T06:30:02.491Z,8.29
2023-11-04T06:31:02.454Z,8.24
2023-11-04T06:32:02.451Z,8.37
2023-11-04T06:33:02.450Z,8.35
2023-11-04T06:34:02.492Z,8.31
2023-11-04T06:35:02.537Z,8.32
2023-11-04T06:36:02.900Z,8.41
2023-11-04T06:37:02.429Z,8.32
2023-11-04T06:38:02.858Z,8.20
2023-11-04T06:39:02.390Z,8.34
2023-11-04T06:40:02.493Z,8.31
2023-11-04T06:41:02.347Z,8.31
2023-11-04T06:42:02.375Z,8.37
2023-11-04T06:43:02.487Z,8.37
2023-11-04T06:44:02.372Z,8.26
2023-11-04T06:45:02.436Z,8.44
2023-11-04T06:46:02.323Z,8.28
2023-11-04T06:47:02.335Z,8.37
2023-11-04T06:48:02.373Z,8.49
2023-11-04T06:49:02.358Z,8.39
2023-11-04T06:50:02.320Z,8.47
2023-11-04T06:51:02.288Z,8.39
2023-11-04T06:52:02.342Z,8.50
2023-11-04T06:53:02.363Z,8.50
2023-11-04T06:54:02.289Z,8.50
2023-11-04T06:55:02.361Z,8.49
2023-11-04T06:56:02.245Z,8.44
2023-11-04T06:57:02.267Z,8.52
2023-11-04T06:58:02.296Z,8.52
2023-11-04T06:59:02.289Z,8.59
2023-11-04T07:00:02.381Z,8.63
2023-11-04T07:01:02.243Z,8.56
2023-11-04T07:02:02.211Z,8.50
2023-11-04T07:03:02.312Z,8.57
2023-11-04T07:04:02.286Z,8.60
2023-11-04T07:05:02.315Z,8.63
2023-11-04T07:06:02.268Z,8.57
2023-11-04T07:07:02.225Z,8.57
2023-11-04T07:08:02.349Z,8.59
2023-11-04T07:09:02.165Z,8.60
2023-11-04T07:10:02.217Z,8.59
2023-11-04T07:11:02.176Z,8.62
2023-11-04T07:12:02.143Z,8.59
2023-11-04T07:13:02.412Z,8.57
2023-11-04T07:14:02.131Z,8.67
2023-11-04T07:15:02.166Z,8.56
2023-11-04T07:16:02.135Z,8.55
2023-11-04T07:17:02.138Z,8.67
2023-11-04T07:18:02.276Z,8.68
2023-11-04T07:19:02.229Z,8.72
2023-11-04T07:20:02.080Z,8.75
2023-11-04T07:21:02.164Z,8.68
2023-11-04T07:22:02.232Z,8.75
2023-11-04T07:23:02.090Z,8.70
2023-11-04T07:24:02.065Z,8.70
2023-11-04T07:25:02.082Z,8.89
2023-11-04T07:26:02.053Z,8.71
2023-11-04T07:27:02.049Z,8.75
2023-11-04T07:28:02.074Z,8.89
2023-11-04T07:29:02.065Z,8.85
2023-11-04T07:30:02.069Z,8.83
2023-11-04T07:31:02.102Z,8.89
2023-11-04T07:32:02.191Z,8.89
2023-11-04T07:33:02.131Z,8.96
2023-11-04T07:34:02.069Z,8.92
2023-11-04T07:35:02.041Z,8.93
2023-11-04T07:36:02.025Z,8.90
2023-11-04T07:37:02.054Z,8.89
2023-11-04T07:38:01.981Z,8.89
2023-11-04T07:39:01.990Z,8.96
2023-11-04T07:40:02.195Z,8.89
2023-11-04T07:41:02.080Z,9.01
2023-11-04T07:42:01.937Z,9.27
2023-11-04T07:43:01.972Z,9.48
2023-11-04T07:44:01.922Z,9.60
2023-11-04T07:45:01.927Z,9.65
2023-11-04T07:46:01.945Z,9.73
2023-11-04T07:47:01.946Z,9.81
2023-11-04T07:48:01.984Z,9.83
2023-11-04T07:49:01.921Z,9.77
2023-11-04T07:50:01.895Z,9.84
2023-11-04T07:51:01.895Z,9.73
2023-11-04T07:52:02.008Z,9.54
2023-11-04T07:53:01.903Z,9.54
2023-11-04T07:54:01.882Z,9.54
2023-11-04T07:55:01.910Z,9.47
2023-11-04T07:56:01.921Z,9.40
2023-11-04T07:57:01.834Z,9.32
2023-11-04T07:58:01.885Z,9.30
2023-11-04T07:59:01.853Z,9.42
2023-11-04T08:00:01.885Z,9.27
2023-11-04T08:01:01.875Z,9.23
2023-11-04T08:02:01.816Z,9.27
2023-11-04T08:03:03.208Z,9.12
2023-11-04T08:04:01.950Z,9.04
2023-11-04T08:05:01.821Z,8.92
2023-11-04T08:06:01.784Z,8.90
2023-11-04T08:07:01.819Z,8.89
2023-11-04T08:08:01.758Z,8.72
2023-11-04T08:09:01.744Z,8.78
2023-11-04T08:10:01.769Z,8.85
2023-11-04T08:11:01.744Z,8.85
2023-11-04T08:12:01.796Z,8.90
2023-11-04T08:13:01.774Z,8.85
2023-11-04T08:14:01.846Z,8.93
2023-11-04T08:15:01.704Z,8.88
2023-11-04T08:16:01.866Z,8.85
2023-11-04T08:17:01.683Z,8.95
2023-11-04T08:18:01.773Z,8.78
2023-11-04T08:19:01.742Z,8.93
2023-11-04T08:20:01.682Z,8.90
2023-11-04T08:21:01.670Z,8.90
2023-11-04T08:22:01.735Z,8.96
2023-11-04T08:23:01.641Z,8.93
2023-11-04T08:24:01.647Z,9.04
2023-11-04T08:25:01.745Z,9.04
2023-11-04T08:26:01.626Z,9.09
2023-11-04T08:27:01.621Z,9.08
2023-11-04T08:28:01.637Z,9.14
2023-11-04T08:29:01.619Z,9.11
2023-11-04T08:30:01.652Z,9.26
2023-11-04T08:31:01.633Z,9.18
2023-11-04T08:32:01.576Z,9.22
2023-11-04T08:33:01.722Z,9.30
2023-11-04T08:34:01.629Z,9.27
2023-11-04T08:35:01.600Z,9.23
2023-11-04T08:36:01.553Z,9.23
2023-11-04T08:37:01.606Z,9.26
2023-11-04T08:38:01.538Z,9.18
2023-11-04T08:39:01.533Z,9.14
2023-11-04T08:40:01.569Z,9.16
2023-11-04T08:41:01.540Z,9.12
2023-11-04T08:42:01.511Z,9.12
2023-11-04T08:43:01.550Z,9.08
2023-11-04T08:44:01.498Z,9.18
2023-11-04T08:45:01.524Z,9.23
2023-11-04T08:46:01.817Z,9.22
2023-11-04T08:47:01.504Z,9.18
2023-11-04T08:48:01.542Z,9.33
2023-11-04T08:49:01.605Z,9.15
2023-11-04T08:50:01.496Z,9.24
2023-11-04T08:51:01.498Z,9.11
2023-11-04T08:52:01.897Z,9.18
2023-11-04T08:53:01.540Z,9.08
2023-11-04T08:54:01.441Z,9.06
2023-11-04T08:55:01.694Z,9.18
2023-11-04T08:56:01.425Z,9.06
2023-11-04T08:57:01.410Z,9.09
2023-11-04T08:58:01.530Z,9.09
2023-11-04T08:59:01.408Z,9.11
2023-11-04T09:00:02.845Z,9.14
2023-11-04T09:01:01.464Z,9.26
2023-11-04T09:02:01.384Z,9.11
2023-11-04T09:03:01.404Z,9.22
2023-11-04T09:04:04.022Z,9.14
2023-11-04T09:05:07.675Z,9.24
2023-11-04T09:06:02.494Z,9.14
2023-11-04T09:07:01.567Z,9.24
2023-11-04T09:08:01.406Z,9.11
2023-11-04T09:09:01.319Z,9.27
2023-11-04T09:10:01.359Z,9.30
2023-11-04T09:11:01.749Z,9.19
2023-11-04T09:12:01.339Z,9.33
2023-11-04T09:13:01.416Z,9.24
2023-11-04T09:14:01.284Z,9.27
2023-11-04T09:15:01.281Z,9.18
2023-11-04T09:16:01.314Z,9.24
2023-11-04T09:17:01.299Z,9.16
2023-11-04T09:18:01.357Z,9.15
2023-11-04T09:19:01.312Z,9.18
2023-11-04T09:20:01.254Z,9.27
2023-11-04T09:21:01.324Z,9.23
2023-11-04T09:22:01.330Z,9.32
2023-11-04T09:23:01.267Z,9.32
2023-11-04T09:24:01.588Z,9.26
2023-11-04T09:25:01.265Z,9.24
2023-11-04T09:26:01.253Z,9.27
2023-11-04T09:27:01.204Z,9.24
2023-11-04T09:28:01.236Z,9.37
2023-11-04T09:29:01.180Z,9.52
2023-11-04T09:30:01.236Z,9.34
2023-11-04T09:31:01.220Z,9.36
2023-11-04T09:32:01.238Z,9.32
2023-11-04T09:33:01.265Z,9.26
2023-11-04T09:34:01.272Z,9.24
2023-11-04T09:35:01.283Z,9.30
2023-11-04T09:36:01.333Z,9.18
2023-11-04T09:37:01.164Z,9.24
2023-11-04T09:38:01.126Z,9.40
2023-11-04T09:39:01.135Z,9.36
2023-11-04T09:40:01.191Z,9.30
2023-11-04T09:41:01.119Z,9.32
2023-11-04T09:42:01.325Z,9.29
2023-11-04T09:43:01.084Z,9.34
2023-11-04T09:44:01.075Z,9.33
2023-11-04T09:45:01.074Z,9.27
2023-11-04T09:46:01.146Z,9.23
2023-11-04T09:47:01.064Z,9.32
2023-11-04T09:48:01.198Z,9.34
2023-11-04T09:49:01.191Z,9.30
2023-11-04T09:50:01.045Z,9.22
2023-11-04T09:51:01.079Z,9.27
2023-11-04T09:52:01.060Z,9.19
2023-11-04T09:53:01.226Z,9.27
2023-11-04T09:54:01.145Z,9.26
2023-11-04T09:55:01.393Z,9.26
2023-11-04T09:56:01.007Z,9.24
2023-11-04T09:57:00.993Z,9.29
2023-11-04T09:58:01.016Z,9.34
2023-11-04T09:59:01.099Z,9.32
2023-11-04T10:00:01.070Z,9.27
2023-11-04T10:01:01.039Z,9.26
2023-11-04T10:02:00.967Z,9.19
2023-11-04T10:03:01.048Z,9.23
2023-11-04T10:04:01.045Z,9.32
2023-11-04T10:05:01.033Z,9.27
2023-11-04T10:06:00.951Z,9.33
2023-11-04T10:07:01.009Z,9.32
2023-11-04T10:08:00.920Z,9.32
2023-11-04T10:09:00.913Z,9.33
2023-11-04T10:10:00.947Z,9.40
2023-11-04T10:11:00.920Z,9.42
2023-11-04T10:12:00.913Z,9.34
2023-11-04T10:13:00.939Z,9.41
2023-11-04T10:14:00.881Z,9.36
2023-11-04T10:15:00.870Z,9.45
2023-11-04T10:16:01.183Z,9.47
2023-11-04T10:17:00.893Z,9.48
2023-11-04T10:18:00.886Z,9.42
2023-11-04T10:19:00.955Z,9.54
2023-11-04T10:20:00.880Z,9.51
2023-11-04T10:21:00.904Z,9.52
2023-11-04T10:22:00.883Z,9.57
2023-11-04T10:23:00.813Z,9.54
2023-11-04T10:24:00.814Z,9.60
2023-11-04T10:25:00.848Z,9.60
2023-11-04T10:26:00.800Z,9.59
2023-11-04T10:27:00.829Z,9.57
2023-11-04T10:28:00.890Z,9.55
2023-11-04T10:29:00.816Z,9.48
2023-11-04T10:30:00.761Z,9.60
2023-11-04T10:31:00.818Z,9.62
2023-11-04T10:32:00.749Z,9.69
2023-11-04T10:33:00.782Z,9.69
2023-11-04T10:34:01.055Z,9.73
2023-11-04T10:35:00.726Z,9.78
2023-11-04T10:36:00.731Z,9.66
2023-11-04T10:37:14.363Z,9.78
2023-11-04T10:38:01.748Z,9.69
2023-11-04T10:39:00.701Z,9.72
2023-11-04T10:40:00.716Z,9.77
2023-11-04T10:41:00.694Z,9.85
2023-11-04T10:42:00.678Z,9.88
2023-11-04T10:43:00.732Z,9.87
2023-11-04T10:44:00.668Z,9.90
2023-11-04T10:45:00.662Z,9.87
2023-11-04T10:46:00.669Z,9.96
2023-11-04T10:47:00.645Z,10.01
2023-11-04T10:48:00.888Z,9.96
2023-11-04T10:49:00.741Z,9.99
2023-11-04T10:50:00.618Z,10.03
2023-11-04T10:51:00.617Z,9.99
2023-11-04T10:52:00.640Z,10.02
2023-11-04T10:53:00.624Z,10.06
2023-11-04T10:54:00.628Z,10.17
2023-11-04T10:55:00.647Z,10.24
2023-11-04T10:56:00.579Z,10.34
2023-11-04T10:57:00.583Z,10.38
2023-11-04T10:58:00.632Z,10.52
2023-11-04T10:59:00.595Z,10.54
2023-11-04T11:00:00.621Z,10.68
2023-11-04T11:01:00.551Z,10.67
2023-11-04T11:02:00.541Z,10.70
2023-11-04T11:03:00.619Z,10.67
2023-11-04T11:04:00.755Z,10.75
2023-11-04T11:05:00.651Z,10.67
2023-11-04T11:06:00.552Z,10.70
2023-11-04T11:07:00.586Z,10.78
2023-11-04T11:08:00.495Z,10.85
2023-11-04T11:09:00.498Z,10.78
2023-11-04T11:10:00.544Z,10.90
2023-11-04T11:11:00.489Z,11.04
2023-11-04T11:12:00.534Z,11.20
2023-11-04T11:13:00.545Z,11.25
2023-11-04T11:14:00.453Z,11.34
2023-11-04T11:15:00.477Z,11.36
2023-11-04T11:16:00.537Z,11.27
2023-11-04T11:17:00.430Z,11.11
2023-11-04T11:18:00.555Z,10.94
2023-11-04T11:19:00.475Z,10.97
2023-11-04T11:20:00.420Z,10.90
2023-11-04T11:21:00.399Z,10.75
2023-11-04T11:22:00.424Z,10.73
2023-11-04T11:23:00.456Z,10.80
2023-11-04T11:24:00.399Z,10.79
2023-11-04T11:25:00.446Z,10.62
2023-11-04T11:26:00.395Z,10.58
2023-11-04T11:27:00.361Z,10.55
2023-11-04T11:28:00.434Z,10.62
2023-11-04T11:29:00.347Z,10.68
2023-11-04T11:30:00.370Z,10.65
2023-11-04T11:31:00.375Z,10.64
2023-11-04T11:32:00.336Z,10.76
2023-11-04T11:33:00.400Z,11.00
2023-11-04T11:34:00.398Z,10.98
2023-11-04T11:35:00.358Z,11.19
2023-11-04T11:36:00.321Z,11.28
2023-11-04T11:37:00.322Z,11.18
2023-11-04T11:38:00.432Z,11.13
2023-11-04T11:39:00.272Z,11.13
2023-11-04T11:40:00.323Z,11.16
2023-11-04T11:41:00.257Z,10.94
2023-11-04T11:42:00.311Z,10.76
2023-11-04T11:43:00.307Z,10.78
2023-11-04T11:44:00.579Z,10.73
2023-11-04T11:45:00.230Z,10.65
2023-11-04T11:46:00.468Z,10.68
2023-11-04T11:47:00.292Z,10.52
2023-11-04T11:48:00.341Z,10.43
2023-11-04T11:49:00.312Z,10.38
2023-11-04T11:50:00.292Z,10.43
2023-11-04T11:51:00.188Z,10.34
2023-11-04T11:52:00.198Z,10.41
2023-11-04T11:53:00.164Z,10.42
2023-11-04T11:54:00.157Z,10.41
2023-11-04T11:55:00.262Z,10.42
2023-11-04T11:56:00.197Z,10.46
2023-11-04T11:57:00.294Z,10.52
2023-11-04T11:58:00.185Z,10.54
2023-11-04T11:59:00.132Z,10.49
2023-11-04T12:00:00.157Z,10.52
2023-11-04T12:01:00.381Z,10.45
2023-11-04T12:02:02.156Z,10.34
2023-11-04T12:03:00.173Z,10.45
2023-11-04T12:04:00.165Z,10.38
2023-11-04T12:05:00.208Z,10.41
2023-11-04T12:06:00.139Z,10.42
2023-11-04T12:07:00.096Z,10.39
2023-11-04T12:08:00.082Z,10.30
2023-11-04T12:09:00.059Z,10.26
2023-11-04T12:10:00.212Z,10.21
2023-11-04T12:11:00.037Z,10.16
2023-11-04T12:12:00.051Z,10.31
2023-11-04T12:13:00.092Z,10.30
2023-11-04T12:14:02.215Z,10.27
2023-11-04T12:15:00.018Z,10.31
2023-11-04T12:16:00.052Z,10.24
2023-11-04T12:16:59.995Z,10.27
2023-11-04T12:18:00.352Z,10.24
2023-11-04T12:19:00.097Z,10.26
2023-11-04T12:19:59.980Z,10.30
2023-11-04T12:20:59.978Z,10.26
2023-11-04T12:22:00.003Z,10.27
2023-11-04T12:22:59.983Z,10.38
2023-11-04T12:23:59.961Z,10.16
2023-11-04T12:25:00.081Z,10.26
2023-11-04T12:25:59.942Z,10.27
2023-11-04T12:26:59.929Z,10.24
2023-11-04T12:27:59.972Z,10.31
2023-11-04T12:28:59.934Z,10.31
2023-11-04T12:29:59.950Z,10.23
2023-11-04T12:30:59.982Z,10.31
2023-11-04T12:31:59.891Z,10.21
2023-11-04T12:32:59.931Z,10.30
2023-11-04T12:33:59.918Z,10.24
2023-11-04T12:34:59.977Z,10.31
2023-11-04T12:36:06.951Z,10.26
2023-11-04T12:37:00.891Z,10.24
2023-11-04T12:37:59.886Z,10.21
2023-11-04T12:38:59.867Z,10.21
2023-11-04T12:39:59.876Z,10.31
2023-11-04T12:40:59.823Z,10.26
2023-11-04T12:41:59.820Z,10.28
2023-11-04T12:42:59.850Z,10.26
2023-11-04T12:43:59.848Z,10.28
2023-11-04T12:44:59.788Z,10.35
2023-11-04T12:45:59.820Z,10.34
2023-11-04T12:46:59.810Z,10.45
2023-11-04T12:47:59.926Z,10.39
2023-11-04T12:49:00.007Z,10.38
2023-11-04T12:49:59.772Z,10.36
2023-11-04T12:50:59.859Z,10.39
2023-11-04T12:51:59.810Z,10.38
2023-11-04T12:52:59.999Z,10.48
2023-11-04T12:53:59.758Z,10.35
2023-11-04T12:54:59.809Z,10.43
2023-11-04T12:55:59.730Z,10.43
2023-11-04T12:56:59.701Z,10.38
2023-11-04T12:57:59.745Z,10.48
2023-11-04T12:58:59.706Z,10.41
2023-11-04T12:59:59.683Z,10.48
2023-11-04T13:00:59.728Z,10.48
2023-11-04T13:01:59.664Z,10.43
2023-11-04T13:02:59.688Z,10.34
2023-11-04T13:03:59.708Z,10.39
2023-11-04T13:04:59.809Z,10.43
2023-11-04T13:05:59.671Z,10.39
2023-11-04T13:06:59.879Z,10.48
2023-11-04T13:07:59.616Z,10.41
2023-11-04T13:08:59.631Z,10.54
2023-11-04T13:09:59.672Z,10.54
2023-11-04T13:10:59.793Z,10.45
2023-11-04T13:11:59.598Z,10.48
2023-11-04T13:12:59.641Z,10.45
2023-11-04T13:13:59.606Z,10.38